sensor_id;sensor_type;location;lat;lon;timestamp;P1;durP1;ratioP1;P2;durP2;ratioP2
35634;SDS011;21757;43.610;1.440;2022-10-16T00:00:44;11.63;;;9.88;;
35634;SDS011;21757;43.610;1.440;2022-10-16T00:03:11;11.32;;;9.90;;
35634;SDS011;21757;43.610;1.440;2022-10-16T00:05:38;14.23;;;10.75;;
35634;SDS011;21757;43.610;1.440;2022-10-16T00:08:04;14.85;;;10.13;;
35634;SDS011;21757;43.610;1.440;2022-10-16T00:10:31;14.15;;;10.45;;
35634;SDS011;21757;43.610;1.440;2022-10-16T00:12:56;12.85;;;10.50;;
35634;SDS011;21757;43.610;1.440;2022-10-16T00:15:22;13.15;;;9.70;;
35634;SDS011;21757;43.610;1.440;2022-10-16T00:17:48;12.10;;;10.77;;
35634;SDS011;21757;43.610;1.440;2022-10-16T00:20:14;14.00;;;10.27;;
35634;SDS011;21757;43.610;1.440;2022-10-16T00:22:39;11.65;;;9.68;;
35634;SDS011;21757;43.610;1.440;2022-10-16T00:25:05;19.95;;;10.02;;
35634;SDS011;21757;43.610;1.440;2022-10-16T00:27:31;15.48;;;10.38;;
35634;SDS011;21757;43.610;1.440;2022-10-16T00:29:57;16.88;;;9.68;;
35634;SDS011;21757;43.610;1.440;2022-10-16T00:32:23;13.18;;;10.13;;
35634;SDS011;21757;43.610;1.440;2022-10-16T00:34:49;16.23;;;11.77;;
35634;SDS011;21757;43.610;1.440;2022-10-16T00:37:15;15.45;;;10.18;;
35634;SDS011;21757;43.610;1.440;2022-10-16T00:39:40;14.27;;;10.07;;
35634;SDS011;21757;43.610;1.440;2022-10-16T00:42:06;14.30;;;10.23;;
35634;SDS011;21757;43.610;1.440;2022-10-16T00:47:31;14.02;;;11.02;;
35634;SDS011;21757;43.610;1.440;2022-10-16T00:50:04;13.35;;;9.55;;
35634;SDS011;21757;43.610;1.440;2022-10-16T00:52:35;12.95;;;10.60;;
35634;SDS011;21757;43.610;1.440;2022-10-16T00:55:04;14.80;;;11.35;;
35634;SDS011;21757;43.610;1.440;2022-10-16T00:57:31;13.95;;;11.32;;
35634;SDS011;21757;43.610;1.440;2022-10-16T00:59:57;14.50;;;10.98;;
35634;SDS011;21757;43.610;1.440;2022-10-16T01:02:23;15.23;;;11.18;;
35634;SDS011;21757;43.610;1.440;2022-10-16T01:04:50;14.43;;;9.90;;
35634;SDS011;21757;43.610;1.440;2022-10-16T01:10:38;15.25;;;11.23;;
35634;SDS011;21757;43.610;1.440;2022-10-16T01:13:21;11.43;;;10.05;;
35634;SDS011;21757;43.610;1.440;2022-10-16T01:15:53;14.18;;;9.82;;
35634;SDS011;21757;43.610;1.440;2022-10-16T01:21:13;12.27;;;10.20;;
35634;SDS011;21757;43.610;1.440;2022-10-16T01:29:16;12.32;;;9.65;;
35634;SDS011;21757;43.610;1.440;2022-10-16T01:31:47;11.35;;;9.68;;
35634;SDS011;21757;43.610;1.440;2022-10-16T01:34:20;12.90;;;10.30;;
35634;SDS011;21757;43.610;1.440;2022-10-16T01:36:55;16.00;;;10.23;;
35634;SDS011;21757;43.610;1.440;2022-10-16T01:39:25;12.48;;;10.63;;
35634;SDS011;21757;43.610;1.440;2022-10-16T01:41:56;14.07;;;10.27;;
35634;SDS011;21757;43.610;1.440;2022-10-16T01:44:29;17.23;;;9.90;;
35634;SDS011;21757;43.610;1.440;2022-10-16T01:46:58;12.55;;;10.45;;
35634;SDS011;21757;43.610;1.440;2022-10-16T01:49:25;13.02;;;10.05;;
35634;SDS011;21757;43.610;1.440;2022-10-16T01:51:55;11.88;;;10.50;;
35634;SDS011;21757;43.610;1.440;2022-10-16T01:54:23;13.32;;;10.50;;
35634;SDS011;21757;43.610;1.440;2022-10-16T01:56:52;15.05;;;10.48;;
35634;SDS011;21757;43.610;1.440;2022-10-16T01:59:21;13.65;;;10.35;;
35634;SDS011;21757;43.610;1.440;2022-10-16T02:01:52;12.50;;;10.70;;
35634;SDS011;21757;43.610;1.440;2022-10-16T02:04:36;14.32;;;10.32;;
35634;SDS011;21757;43.610;1.440;2022-10-16T02:07:07;15.65;;;10.40;;
35634;SDS011;21757;43.610;1.440;2022-10-16T02:09:33;15.88;;;11.40;;
35634;SDS011;21757;43.610;1.440;2022-10-16T02:12:01;14.73;;;10.95;;
35634;SDS011;21757;43.610;1.440;2022-10-16T02:14:33;17.50;;;11.32;;
35634;SDS011;21757;43.610;1.440;2022-10-16T02:16:58;13.98;;;11.43;;
35634;SDS011;21757;43.610;1.440;2022-10-16T02:19:24;16.63;;;12.05;;
35634;SDS011;21757;43.610;1.440;2022-10-16T02:21:51;16.92;;;12.73;;
35634;SDS011;21757;43.610;1.440;2022-10-16T02:32:33;18.50;;;13.70;;
35634;SDS011;21757;43.610;1.440;2022-10-16T02:35:01;17.38;;;13.10;;
35634;SDS011;21757;43.610;1.440;2022-10-16T02:37:29;19.08;;;13.30;;
35634;SDS011;21757;43.610;1.440;2022-10-16T02:39:56;20.15;;;14.05;;
35634;SDS011;21757;43.610;1.440;2022-10-16T02:42:27;19.33;;;13.75;;
35634;SDS011;21757;43.610;1.440;2022-10-16T02:44:54;19.90;;;14.55;;
35634;SDS011;21757;43.610;1.440;2022-10-16T02:47:20;16.88;;;14.18;;
35634;SDS011;21757;43.610;1.440;2022-10-16T02:49:46;18.15;;;13.80;;
35634;SDS011;21757;43.610;1.440;2022-10-16T02:52:11;19.75;;;15.18;;
35634;SDS011;21757;43.610;1.440;2022-10-16T02:54:37;19.83;;;14.80;;
35634;SDS011;21757;43.610;1.440;2022-10-16T02:57:02;22.60;;;17.25;;
35634;SDS011;21757;43.610;1.440;2022-10-16T02:59:28;19.77;;;15.05;;
35634;SDS011;21757;43.610;1.440;2022-10-16T03:01:54;21.30;;;15.38;;
35634;SDS011;21757;43.610;1.440;2022-10-16T03:04:19;32.13;;;21.88;;
35634;SDS011;21757;43.610;1.440;2022-10-16T03:06:45;22.63;;;14.80;;
35634;SDS011;21757;43.610;1.440;2022-10-16T03:09:11;18.42;;;14.35;;
35634;SDS011;21757;43.610;1.440;2022-10-16T03:11:36;24.27;;;16.10;;
35634;SDS011;21757;43.610;1.440;2022-10-16T03:14:02;21.10;;;15.52;;
35634;SDS011;21757;43.610;1.440;2022-10-16T03:16:28;21.00;;;15.00;;
35634;SDS011;21757;43.610;1.440;2022-10-16T03:18:53;19.50;;;15.15;;
35634;SDS011;21757;43.610;1.440;2022-10-16T03:21:19;23.33;;;16.05;;
35634;SDS011;21757;43.610;1.440;2022-10-16T03:23:44;18.85;;;14.63;;
35634;SDS011;21757;43.610;1.440;2022-10-16T03:26:11;28.40;;;19.17;;
35634;SDS011;21757;43.610;1.440;2022-10-16T03:28:37;23.40;;;17.40;;
35634;SDS011;21757;43.610;1.440;2022-10-16T03:31:02;20.48;;;15.88;;
35634;SDS011;21757;43.610;1.440;2022-10-16T03:33:28;23.35;;;16.95;;
35634;SDS011;21757;43.610;1.440;2022-10-16T03:35:54;27.13;;;16.00;;
35634;SDS011;21757;43.610;1.440;2022-10-16T03:38:20;23.65;;;16.58;;
35634;SDS011;21757;43.610;1.440;2022-10-16T03:40:46;24.55;;;18.23;;
35634;SDS011;21757;43.610;1.440;2022-10-16T03:43:12;24.58;;;18.77;;
35634;SDS011;21757;43.610;1.440;2022-10-16T03:45:39;26.65;;;17.70;;
35634;SDS011;21757;43.610;1.440;2022-10-16T03:48:05;26.95;;;18.55;;
35634;SDS011;21757;43.610;1.440;2022-10-16T03:50:30;23.80;;;18.42;;
35634;SDS011;21757;43.610;1.440;2022-10-16T03:52:56;26.17;;;17.77;;
35634;SDS011;21757;43.610;1.440;2022-10-16T03:55:22;27.42;;;18.77;;
35634;SDS011;21757;43.610;1.440;2022-10-16T03:57:47;25.90;;;18.48;;
35634;SDS011;21757;43.610;1.440;2022-10-16T04:00:13;31.40;;;20.35;;
35634;SDS011;21757;43.610;1.440;2022-10-16T04:02:39;21.85;;;16.63;;
35634;SDS011;21757;43.610;1.440;2022-10-16T04:05:05;34.00;;;19.88;;
35634;SDS011;21757;43.610;1.440;2022-10-16T04:07:31;34.53;;;20.63;;
35634;SDS011;21757;43.610;1.440;2022-10-16T04:09:56;26.70;;;18.85;;
35634;SDS011;21757;43.610;1.440;2022-10-16T04:12:23;30.40;;;18.98;;
35634;SDS011;21757;43.610;1.440;2022-10-16T04:14:50;23.98;;;17.55;;
35634;SDS011;21757;43.610;1.440;2022-10-16T04:17:15;24.75;;;18.42;;
35634;SDS011;21757;43.610;1.440;2022-10-16T04:19:41;37.92;;;23.70;;
35634;SDS011;21757;43.610;1.440;2022-10-16T04:22:07;33.28;;;19.92;;
35634;SDS011;21757;43.610;1.440;2022-10-16T04:24:32;30.83;;;19.27;;
35634;SDS011;21757;43.610;1.440;2022-10-16T04:26:58;31.10;;;18.23;;
35634;SDS011;21757;43.610;1.440;2022-10-16T04:29:23;28.92;;;20.60;;
35634;SDS011;21757;43.610;1.440;2022-10-16T04:31:49;24.40;;;17.65;;
35634;SDS011;21757;43.610;1.440;2022-10-16T04:34:15;25.77;;;17.60;;
35634;SDS011;21757;43.610;1.440;2022-10-16T04:36:40;39.95;;;24.27;;
35634;SDS011;21757;43.610;1.440;2022-10-16T04:39:06;23.88;;;15.93;;
35634;SDS011;21757;43.610;1.440;2022-10-16T04:41:32;24.33;;;17.95;;
35634;SDS011;21757;43.610;1.440;2022-10-16T04:43:57;21.92;;;16.48;;
35634;SDS011;21757;43.610;1.440;2022-10-16T04:46:23;21.25;;;16.05;;
35634;SDS011;21757;43.610;1.440;2022-10-16T04:48:49;25.98;;;16.95;;
35634;SDS011;21757;43.610;1.440;2022-10-16T04:51:14;27.48;;;17.55;;
35634;SDS011;21757;43.610;1.440;2022-10-16T04:53:40;22.83;;;16.45;;
35634;SDS011;21757;43.610;1.440;2022-10-16T04:56:06;26.63;;;17.38;;
35634;SDS011;21757;43.610;1.440;2022-10-16T04:58:31;24.33;;;17.30;;
35634;SDS011;21757;43.610;1.440;2022-10-16T05:00:58;28.65;;;18.60;;
35634;SDS011;21757;43.610;1.440;2022-10-16T05:03:24;22.23;;;17.48;;
35634;SDS011;21757;43.610;1.440;2022-10-16T05:05:49;21.88;;;17.63;;
35634;SDS011;21757;43.610;1.440;2022-10-16T05:08:15;25.05;;;19.10;;
35634;SDS011;21757;43.610;1.440;2022-10-16T05:10:41;22.75;;;17.25;;
35634;SDS011;21757;43.610;1.440;2022-10-16T05:13:08;20.90;;;16.48;;
35634;SDS011;21757;43.610;1.440;2022-10-16T05:15:34;25.73;;;16.10;;
35634;SDS011;21757;43.610;1.440;2022-10-16T05:17:59;29.83;;;24.40;;
35634;SDS011;21757;43.610;1.440;2022-10-16T05:20:25;23.40;;;16.30;;
35634;SDS011;21757;43.610;1.440;2022-10-16T05:22:51;25.45;;;17.00;;
35634;SDS011;21757;43.610;1.440;2022-10-16T05:25:17;21.10;;;15.52;;
35634;SDS011;21757;43.610;1.440;2022-10-16T05:27:43;27.38;;;16.88;;
35634;SDS011;21757;43.610;1.440;2022-10-16T05:30:11;25.95;;;15.75;;
35634;SDS011;21757;43.610;1.440;2022-10-16T05:32:37;21.63;;;15.75;;
35634;SDS011;21757;43.610;1.440;2022-10-16T05:35:03;28.65;;;16.33;;
35634;SDS011;21757;43.610;1.440;2022-10-16T05:37:29;23.55;;;15.38;;
35634;SDS011;21757;43.610;1.440;2022-10-16T05:39:54;22.25;;;16.67;;
35634;SDS011;21757;43.610;1.440;2022-10-16T05:42:20;22.00;;;15.23;;
35634;SDS011;21757;43.610;1.440;2022-10-16T05:44:45;21.55;;;15.13;;
35634;SDS011;21757;43.610;1.440;2022-10-16T05:47:12;20.02;;;14.30;;
35634;SDS011;21757;43.610;1.440;2022-10-16T05:49:39;22.38;;;15.07;;
35634;SDS011;21757;43.610;1.440;2022-10-16T05:52:04;20.60;;;15.15;;
35634;SDS011;21757;43.610;1.440;2022-10-16T05:54:30;23.40;;;17.10;;
35634;SDS011;21757;43.610;1.440;2022-10-16T05:56:56;23.23;;;15.98;;
35634;SDS011;21757;43.610;1.440;2022-10-16T05:59:22;24.60;;;16.38;;
35634;SDS011;21757;43.610;1.440;2022-10-16T06:01:47;24.63;;;16.40;;
35634;SDS011;21757;43.610;1.440;2022-10-16T06:04:13;21.13;;;15.20;;
35634;SDS011;21757;43.610;1.440;2022-10-16T06:06:39;29.38;;;17.23;;
35634;SDS011;21757;43.610;1.440;2022-10-16T06:09:05;24.23;;;16.38;;
35634;SDS011;21757;43.610;1.440;2022-10-16T06:11:31;20.23;;;16.00;;
35634;SDS011;21757;43.610;1.440;2022-10-16T06:13:58;25.38;;;16.75;;
35634;SDS011;21757;43.610;1.440;2022-10-16T06:16:27;30.42;;;19.98;;
35634;SDS011;21757;43.610;1.440;2022-10-16T06:18:54;24.20;;;17.25;;
35634;SDS011;21757;43.610;1.440;2022-10-16T06:21:25;24.17;;;16.48;;
35634;SDS011;21757;43.610;1.440;2022-10-16T06:23:52;24.05;;;17.08;;
35634;SDS011;21757;43.610;1.440;2022-10-16T06:26:20;26.88;;;17.88;;
35634;SDS011;21757;43.610;1.440;2022-10-16T06:28:48;24.52;;;16.88;;
35634;SDS011;21757;43.610;1.440;2022-10-16T06:31:14;24.88;;;16.60;;
35634;SDS011;21757;43.610;1.440;2022-10-16T06:33:40;25.70;;;17.60;;
35634;SDS011;21757;43.610;1.440;2022-10-16T06:36:07;25.65;;;15.38;;
35634;SDS011;21757;43.610;1.440;2022-10-16T06:38:34;23.63;;;17.05;;
35634;SDS011;21757;43.610;1.440;2022-10-16T06:41:00;27.50;;;17.63;;
35634;SDS011;21757;43.610;1.440;2022-10-16T06:43:28;23.40;;;16.00;;
35634;SDS011;21757;43.610;1.440;2022-10-16T06:45:58;24.38;;;17.10;;
35634;SDS011;21757;43.610;1.440;2022-10-16T06:48:24;22.85;;;16.52;;
35634;SDS011;21757;43.610;1.440;2022-10-16T06:50:57;23.48;;;17.23;;
35634;SDS011;21757;43.610;1.440;2022-10-16T06:53:24;23.35;;;15.90;;
35634;SDS011;21757;43.610;1.440;2022-10-16T06:55:52;24.00;;;15.88;;
35634;SDS011;21757;43.610;1.440;2022-10-16T06:58:17;22.05;;;15.35;;
35634;SDS011;21757;43.610;1.440;2022-10-16T07:00:43;20.45;;;14.93;;
35634;SDS011;21757;43.610;1.440;2022-10-16T07:03:09;21.85;;;15.00;;
35634;SDS011;21757;43.610;1.440;2022-10-16T07:05:38;20.77;;;14.70;;
35634;SDS011;21757;43.610;1.440;2022-10-16T07:08:07;20.05;;;14.77;;
35634;SDS011;21757;43.610;1.440;2022-10-16T07:10:34;24.02;;;15.38;;
35634;SDS011;21757;43.610;1.440;2022-10-16T07:13:00;18.80;;;14.38;;
35634;SDS011;21757;43.610;1.440;2022-10-16T07:15:26;18.20;;;13.75;;
35634;SDS011;21757;43.610;1.440;2022-10-16T07:17:52;21.13;;;14.52;;
35634;SDS011;21757;43.610;1.440;2022-10-16T07:20:18;22.50;;;15.13;;
35634;SDS011;21757;43.610;1.440;2022-10-16T07:22:44;24.90;;;16.70;;
35634;SDS011;21757;43.610;1.440;2022-10-16T07:25:10;22.15;;;16.73;;
35634;SDS011;21757;43.610;1.440;2022-10-16T07:27:36;20.08;;;13.95;;
35634;SDS011;21757;43.610;1.440;2022-10-16T07:30:02;18.27;;;13.73;;
35634;SDS011;21757;43.610;1.440;2022-10-16T07:32:29;15.10;;;13.38;;
35634;SDS011;21757;43.610;1.440;2022-10-16T07:34:54;18.85;;;11.95;;
35634;SDS011;21757;43.610;1.440;2022-10-16T07:37:20;18.95;;;12.73;;
35634;SDS011;21757;43.610;1.440;2022-10-16T07:39:46;16.20;;;11.60;;
35634;SDS011;21757;43.610;1.440;2022-10-16T07:42:12;15.00;;;12.68;;
35634;SDS011;21757;43.610;1.440;2022-10-16T07:44:38;18.95;;;12.10;;
35634;SDS011;21757;43.610;1.440;2022-10-16T07:47:04;13.52;;;11.73;;
35634;SDS011;21757;43.610;1.440;2022-10-16T07:49:30;13.82;;;11.68;;
35634;SDS011;21757;43.610;1.440;2022-10-16T07:51:56;16.67;;;11.20;;
35634;SDS011;21757;43.610;1.440;2022-10-16T07:54:22;11.90;;;10.48;;
35634;SDS011;21757;43.610;1.440;2022-10-16T07:56:47;14.10;;;11.40;;
35634;SDS011;21757;43.610;1.440;2022-10-16T07:59:13;14.65;;;10.75;;
35634;SDS011;21757;43.610;1.440;2022-10-16T08:01:38;16.52;;;10.38;;
35634;SDS011;21757;43.610;1.440;2022-10-16T08:04:04;15.88;;;10.93;;
35634;SDS011;21757;43.610;1.440;2022-10-16T08:06:34;16.38;;;10.02;;
35634;SDS011;21757;43.610;1.440;2022-10-16T08:09:02;16.55;;;10.55;;
35634;SDS011;21757;43.610;1.440;2022-10-16T08:11:28;17.65;;;11.20;;
35634;SDS011;21757;43.610;1.440;2022-10-16T08:13:53;12.82;;;10.32;;
35634;SDS011;21757;43.610;1.440;2022-10-16T08:16:19;16.50;;;11.05;;
35634;SDS011;21757;43.610;1.440;2022-10-16T08:18:48;15.98;;;11.13;;
35634;SDS011;21757;43.610;1.440;2022-10-16T08:21:17;17.60;;;11.80;;
35634;SDS011;21757;43.610;1.440;2022-10-16T08:23:44;14.25;;;11.38;;
35634;SDS011;21757;43.610;1.440;2022-10-16T08:26:10;18.30;;;12.48;;
35634;SDS011;21757;43.610;1.440;2022-10-16T08:28:36;18.45;;;12.45;;
35634;SDS011;21757;43.610;1.440;2022-10-16T08:31:08;14.70;;;11.68;;
35634;SDS011;21757;43.610;1.440;2022-10-16T08:33:35;19.08;;;12.82;;
35634;SDS011;21757;43.610;1.440;2022-10-16T08:36:02;23.52;;;12.73;;
35634;SDS011;21757;43.610;1.440;2022-10-16T08:38:29;20.67;;;13.23;;
35634;SDS011;21757;43.610;1.440;2022-10-16T08:40:57;16.30;;;12.30;;
35634;SDS011;21757;43.610;1.440;2022-10-16T08:44:02;15.98;;;11.77;;
35634;SDS011;21757;43.610;1.440;2022-10-16T08:49:10;17.95;;;12.85;;
35634;SDS011;21757;43.610;1.440;2022-10-16T08:51:38;19.35;;;12.25;;
35634;SDS011;21757;43.610;1.440;2022-10-16T08:56:37;19.58;;;11.05;;
35634;SDS011;21757;43.610;1.440;2022-10-16T08:59:03;18.83;;;11.32;;
35634;SDS011;21757;43.610;1.440;2022-10-16T09:01:37;18.60;;;11.23;;
35634;SDS011;21757;43.610;1.440;2022-10-16T09:07:05;20.25;;;11.45;;
35634;SDS011;21757;43.610;1.440;2022-10-16T09:15:16;16.08;;;10.48;;
35634;SDS011;21757;43.610;1.440;2022-10-16T09:23:38;19.10;;;11.10;;
35634;SDS011;21757;43.610;1.440;2022-10-16T09:26:04;14.77;;;9.95;;
35634;SDS011;21757;43.610;1.440;2022-10-16T09:28:34;21.17;;;11.40;;
35634;SDS011;21757;43.610;1.440;2022-10-16T09:31:00;20.15;;;9.48;;
35634;SDS011;21757;43.610;1.440;2022-10-16T09:33:28;16.70;;;9.32;;
35634;SDS011;21757;43.610;1.440;2022-10-16T09:36:02;14.35;;;9.45;;
35634;SDS011;21757;43.610;1.440;2022-10-16T09:38:31;16.88;;;8.73;;
35634;SDS011;21757;43.610;1.440;2022-10-16T09:40:58;13.40;;;9.75;;
35634;SDS011;21757;43.610;1.440;2022-10-16T09:43:26;12.93;;;8.63;;
35634;SDS011;21757;43.610;1.440;2022-10-16T09:46:27;13.63;;;8.07;;
35634;SDS011;21757;43.610;1.440;2022-10-16T09:48:56;12.75;;;8.52;;
35634;SDS011;21757;43.610;1.440;2022-10-16T09:54:01;14.43;;;8.18;;
35634;SDS011;21757;43.610;1.440;2022-10-16T09:56:34;16.75;;;8.77;;
35634;SDS011;21757;43.610;1.440;2022-10-16T09:59:08;18.27;;;8.20;;
35634;SDS011;21757;43.610;1.440;2022-10-16T10:01:43;12.60;;;8.40;;
35634;SDS011;21757;43.610;1.440;2022-10-16T10:04:20;12.90;;;7.80;;
35634;SDS011;21757;43.610;1.440;2022-10-16T10:06:48;16.65;;;7.50;;
35634;SDS011;21757;43.610;1.440;2022-10-16T10:11:58;13.25;;;7.47;;
35634;SDS011;21757;43.610;1.440;2022-10-16T10:14:26;15.00;;;7.80;;
35634;SDS011;21757;43.610;1.440;2022-10-16T10:20:33;14.32;;;7.18;;
35634;SDS011;21757;43.610;1.440;2022-10-16T10:22:45;12.70;;;7.00;;
35634;SDS011;21757;43.610;1.440;2022-10-16T10:33:28;14.02;;;6.78;;
35634;SDS011;21757;43.610;1.440;2022-10-16T10:38:57;15.35;;;6.60;;
35634;SDS011;21757;43.610;1.440;2022-10-16T10:46:41;11.38;;;6.10;;
35634;SDS011;21757;43.610;1.440;2022-10-16T10:57:38;11.20;;;6.75;;
35634;SDS011;21757;43.610;1.440;2022-10-16T11:06:15;11.68;;;6.50;;
35634;SDS011;21757;43.610;1.440;2022-10-16T11:11:56;12.18;;;6.28;;
35634;SDS011;21757;43.610;1.440;2022-10-16T11:17:30;12.48;;;6.15;;
35634;SDS011;21757;43.610;1.440;2022-10-16T11:22:54;13.60;;;5.68;;
35634;SDS011;21757;43.610;1.440;2022-10-16T11:27:59;11.43;;;7.20;;
35634;SDS011;21757;43.610;1.440;2022-10-16T11:30:47;13.43;;;5.68;;
35634;SDS011;21757;43.610;1.440;2022-10-16T11:33:24;12.15;;;5.80;;
35634;SDS011;21757;43.610;1.440;2022-10-16T11:41:08;15.25;;;7.10;;
35634;SDS011;21757;43.610;1.440;2022-10-16T11:43:43;10.20;;;5.53;;
35634;SDS011;21757;43.610;1.440;2022-10-16T11:46:19;9.32;;;5.53;;
